Time;durP1;ratioP1;P1;durP2;ratioP2;P2;SDS_P1;SDS_P2;PMS_P1;PMS_P2;Temp;Humidity;BMP_temperature;BMP_pressure;BME280_temperature;BME280_humidity;BME280_pressure;Samples;Min_cycle;Max_cycle;Signal;HPM_P1;HPM_P2
2023/10/05 00:02:08;;;;;;;4.45;1.92;;;;;;;17.52;57.15;102236.97;4917441;28;114241;-80
2023/10/05 00:04:44;;;;;;;4.68;1.70;;;;;;;17.50;57.10;102238.88;4937798;28;123390;-80
2023/10/05 00:07:26;;;;;;;12.35;2.22;;;;;;;17.48;57.11;102236.25;4920719;28;123454;-81
2023/10/05 00:09:56;;;;;;;6.18;1.85;;;;;;;17.46;57.25;102231.91;4952031;28;115550;-81
2023/10/05 00:12:24;;;;;;;5.43;2.10;;;;;;;17.45;57.04;102232.88;4927096;28;115114;-82
2023/10/05 00:15:11;;;;;;;5.53;2.55;;;;;;;17.45;57.16;102235.53;4941804;28;123178;-82
2023/10/05 00:17:38;;;;;;;9.75;2.17;;;;;;;17.44;56.99;102244.50;4944977;28;123714;-80
2023/10/05 00:20:33;;;;;;;6.13;1.98;;;;;;;17.42;57.13;102246.41;4936124;28;113385;-81
2023/10/05 00:23:04;;;;;;;7.73;1.90;;;;;;;17.42;57.10;102257.13;4927017;28;113666;-81
2023/10/05 00:25:32;;;;;;;9.30;1.95;;;;;;;17.40;57.28;102253.66;4952707;28;124382;-81
2023/10/05 00:28:04;;;;;;;6.10;1.65;;;;;;;17.39;57.05;102257.31;4925217;28;123832;-80
2023/10/05 00:30:31;;;;;;;5.90;2.00;;;;;;;17.38;57.24;102258.22;4948017;28;113394;-81
2023/10/05 00:33:00;;;;;;;5.88;1.92;;;;;;;17.37;57.24;102253.84;4957831;28;113572;-81
2023/10/05 00:35:29;;;;;;;7.47;2.00;;;;;;;17.37;57.38;102269.91;4935197;28;124453;-79
2023/10/05 00:38:16;;;;;;;5.93;1.80;;;;;;;17.38;57.32;102255.56;4934845;28;123888;-81
2023/10/05 00:41:01;;;;;;;5.45;1.60;;;;;;;17.36;57.26;102269.00;4942115;28;114697;-81
2023/10/05 00:43:28;;;;;;;4.72;2.03;;;;;;;17.34;57.36;102260.19;4926455;28;115990;-81
2023/10/05 00:45:58;;;;;;;5.03;1.75;;;;;;;17.32;57.09;102262.94;4951962;28;124674;-80
2023/10/05 00:48:34;;;;;;;4.65;1.60;;;;;;;17.30;57.23;102264.84;4952461;28;122736;-81
2023/10/05 00:51:09;;;;;;;8.48;2.30;;;;;;;17.30;57.56;102262.16;4950251;28;113737;-81
2023/10/05 00:53:36;;;;;;;4.97;1.75;;;;;;;17.29;57.24;102263.13;4935589;28;112424;-81
2023/10/05 00:56:07;;;;;;;4.07;1.60;;;;;;;17.25;57.39;102266.91;4965040;28;123144;-81
2023/10/05 00:58:44;;;;;;;4.30;1.83;;;;;;;17.24;57.29;102270.50;4934711;28;123342;-80
2023/10/05 01:01:25;;;;;;;3.40;1.90;;;;;;;17.21;57.43;102269.78;4950653;28;114477;-80
2023/10/05 01:09:15;;;;;;;7.00;1.92;;;;;;;17.12;57.49;102269.31;4951071;28;124310;-81
2023/10/05 01:11:44;;;;;;;5.53;1.92;;;;;;;17.13;57.49;102262.16;4941982;28;113595;-80
2023/10/05 01:14:16;;;;;;;10.88;2.28;;;;;;;17.12;57.69;102263.06;4953220;28;113870;-81
2023/10/05 01:16:44;;;;;;;6.93;1.98;;;;;;;17.13;57.62;102262.16;4966513;28;123612;-81
2023/10/05 01:19:11;;;;;;;7.97;1.80;;;;;;;17.11;57.54;102259.53;4952278;28;124934;-82
2023/10/05 01:21:40;;;;;;;6.45;2.50;;;;;;;17.10;57.68;102256.94;4953049;28;113762;-79
2023/10/05 01:24:09;;;;;;;4.90;1.55;;;;;;;17.10;57.98;102257.81;4951057;28;114321;-81
2023/10/05 01:26:37;;;;;;;5.55;2.17;;;;;;;17.11;57.77;102264.03;4917407;28;123616;-80
2023/10/05 01:29:05;;;;;;;8.85;1.83;;;;;;;17.10;57.81;102256.94;4934670;28;122845;-80
2023/10/05 01:31:32;;;;;;;8.32;1.92;;;;;;;17.10;57.89;102262.28;4950366;28;114936;-79
2023/10/05 01:34:01;;;;;;;5.95;1.80;;;;;;;17.09;57.85;102261.44;4934293;28;112178;-82
2023/10/05 01:36:28;;;;;;;7.07;2.20;;;;;;;17.07;57.86;102263.31;4936158;28;123415;-82
2023/10/05 01:39:01;;;;;;;6.15;1.88;;;;;;;17.06;57.65;102258.03;4950629;28;122233;-82
2023/10/05 01:41:29;;;;;;;8.85;2.33;;;;;;;17.06;58.00;102260.72;4958387;28;115472;-82
2023/10/05 01:43:57;;;;;;;6.53;2.10;;;;;;;17.07;58.03;102257.13;4956236;28;113109;-81
2023/10/05 01:46:24;;;;;;;8.95;2.05;;;;;;;17.06;58.09;102250.00;4945899;28;123548;-80
2023/10/05 01:48:52;;;;;;;6.35;2.13;;;;;;;17.06;58.02;102239.31;4950769;28;124699;-79
2023/10/05 01:51:23;;;;;;;8.25;2.20;;;;;;;17.05;58.12;102242.94;4964492;28;115402;-80
2023/10/05 01:54:11;;;;;;;7.22;1.80;;;;;;;17.06;57.83;102239.31;4935636;28;114451;-81
2023/10/05 01:56:43;;;;;;;6.75;2.05;;;;;;;17.04;58.14;102235.84;4933503;28;123946;-80
2023/10/05 01:59:12;;;;;;;6.38;2.20;;;;;;;17.03;58.15;102234.13;4932815;28;124504;-80
2023/10/05 02:01:40;;;;;;;8.20;2.20;;;;;;;17.02;58.09;102237.72;4932653;28;113585;-81
2023/10/05 02:04:09;;;;;;;7.72;2.15;;;;;;;17.01;57.95;102244.00;4934144;28;114391;-80
2023/10/05 02:06:41;;;;;;;7.53;2.00;;;;;;;17.00;58.22;102243.16;4933780;28;124023;-81
2023/10/05 02:09:14;;;;;;;7.65;2.53;;;;;;;17.01;58.02;102242.22;4932080;28;123708;-79
2023/10/05 02:11:41;;;;;;;6.43;2.17;;;;;;;17.00;58.28;102232.44;4918104;28;112620;-80
2023/10/05 02:14:12;;;;;;;6.85;2.22;;;;;;;17.00;58.21;102234.25;4917849;28;114986;-80
2023/10/05 02:16:41;;;;;;;7.65;2.15;;;;;;;16.99;58.28;102229.84;4933429;28;122392;-81
2023/10/05 02:19:08;;;;;;;6.75;2.10;;;;;;;16.99;58.35;102237.88;4915446;28;122088;-81
2023/10/05 02:21:36;;;;;;;7.43;2.45;;;;;;;16.98;58.43;102242.38;4931259;28;113779;-80
2023/10/05 02:24:16;;;;;;;8.65;2.00;;;;;;;16.97;58.36;102229.94;4930406;28;113425;-81
2023/10/05 02:29:23;;;;;;;9.85;2.30;;;;;;;16.97;58.73;102229.06;4940720;28;123565;-81
2023/10/05 02:32:15;;;;;;;6.30;2.03;;;;;;;16.95;58.38;102221.09;4933218;28;113590;-82
2023/10/05 02:37:07;;;;;;;9.93;2.00;;;;;;;16.96;58.40;102232.69;4944262;28;124249;-80
2023/10/05 02:39:38;;;;;;;6.80;2.28;;;;;;;16.96;58.21;102232.69;4914200;28;121917;-80
2023/10/05 02:42:06;;;;;;;6.50;2.05;;;;;;;16.93;58.43;102222.97;4949333;28;114558;-80
2023/10/05 02:44:35;;;;;;;6.50;1.98;;;;;;;16.91;58.47;102220.41;4936033;28;113338;-80
2023/10/05 02:47:08;;;;;;;7.15;2.38;;;;;;;16.90;58.38;102226.69;4932329;28;126347;-82
2023/10/05 02:49:43;;;;;;;5.60;2.28;;;;;;;16.88;58.26;102225.91;4947259;28;124046;-81
2023/10/05 02:52:13;;;;;;;6.60;2.40;;;;;;;16.86;58.50;102227.78;4941088;28;114329;-80
2023/10/05 02:54:44;;;;;;;7.07;2.67;;;;;;;16.84;58.54;102223.44;4936148;28;112570;-81
2023/10/05 02:57:16;;;;;;;7.30;2.17;;;;;;;16.81;58.53;102219.06;4950874;28;123814;-80
2023/10/05 02:59:44;;;;;;;4.82;2.08;;;;;;;16.80;58.66;102217.38;4921779;28;124194;-80
2023/10/05 03:02:16;;;;;;;6.97;2.03;;;;;;;16.79;58.61;102214.75;4960896;28;114230;-80
2023/10/05 03:04:45;;;;;;;10.77;2.13;;;;;;;16.79;58.68;102218.28;4947531;28;114191;-81
2023/10/05 03:07:18;;;;;;;6.30;2.10;;;;;;;16.77;58.79;102206.81;4929104;28;124083;-80
2023/10/05 03:09:48;;;;;;;5.07;1.95;;;;;;;16.76;58.61;102209.53;4934790;28;123973;-79
2023/10/05 03:12:20;;;;;;;5.85;2.20;;;;;;;16.75;58.76;102214.03;4956537;28;114135;-81
2023/10/05 03:14:50;;;;;;;8.90;2.25;;;;;;;16.74;58.68;102212.28;4939451;28;113681;-80
2023/10/05 03:17:22;;;;;;;5.75;2.20;;;;;;;16.74;58.84;102212.28;4916523;28;123626;-80
2023/10/05 03:19:50;;;;;;;10.85;2.47;;;;;;;16.73;58.87;102215.94;4940600;28;124112;-80
2023/10/05 03:22:23;;;;;;;6.95;2.22;;;;;;;16.73;59.03;102215.94;4914718;28;115187;-80
2023/10/05 03:24:54;;;;;;;6.78;2.08;;;;;;;16.73;58.87;102215.94;4931697;28;114194;-80
2023/10/05 03:27:25;;;;;;;4.95;2.00;;;;;;;16.73;58.90;102210.56;4942326;28;122831;-81
2023/10/05 03:29:59;;;;;;;5.05;1.67;;;;;;;16.71;58.83;102213.31;4926000;28;123515;-80
2023/10/05 03:32:28;;;;;;;6.32;2.20;;;;;;;16.70;58.99;102205.38;4955598;28;118501;-81
2023/10/05 03:34:57;;;;;;;9.02;2.58;;;;;;;16.70;58.92;102210.72;4937509;28;114229;-80
2023/10/05 03:37:24;;;;;;;7.35;2.10;;;;;;;16.70;58.95;102210.72;4937421;28;122235;-81
2023/10/05 03:39:53;;;;;;;7.53;2.38;;;;;;;16.70;59.04;102211.56;4946682;28;123876;-80
2023/10/05 03:42:22;;;;;;;7.82;2.70;;;;;;;16.70;59.15;102210.72;4954258;28;113409;-81
2023/10/05 03:45:03;;;;;;;9.05;2.53;;;;;;;16.68;58.89;102207.25;4963825;28;112512;-81
2023/10/05 03:47:34;;;;;;;5.55;2.50;;;;;;;16.66;59.09;102209.13;4931613;28;123313;-81
2023/10/05 03:50:01;;;;;;;7.75;2.45;;;;;;;16.64;58.99;102211.03;4962160;28;124853;-80
2023/10/05 03:52:32;;;;;;;5.82;2.40;;;;;;;16.62;59.04;102212.91;4954161;28;113472;-80
2023/10/05 03:55:04;;;;;;;8.32;2.20;;;;;;;16.61;59.08;102216.50;4936023;28;113624;-81
2023/10/05 03:57:33;;;;;;;12.60;2.63;;;;;;;16.60;59.22;102214.78;4957538;28;123603;-81
2023/10/05 04:00:16;;;;;;;8.02;2.38;;;;;;;16.61;59.15;102211.16;4941586;28;123167;-80
2023/10/05 04:02:46;;;;;;;6.32;2.00;;;;;;;16.60;59.29;102212.13;4936010;28;115254;-80
2023/10/05 04:05:17;;;;;;;4.82;2.10;;;;;;;16.59;59.13;102207.69;4936597;28;113408;-81
2023/10/05 04:07:47;;;;;;;8.30;2.40;;;;;;;16.60;59.18;102220.16;4920197;28;123861;-80
2023/10/05 04:10:20;;;;;;;5.82;2.15;;;;;;;16.61;59.38;102221.84;4945814;28;124433;-80
2023/10/05 04:12:55;;;;;;;8.85;2.40;;;;;;;16.61;59.10;102206.66;4949402;28;113613;-80
2023/10/05 04:15:22;;;;;;;5.37;2.07;;;;;;;16.60;59.24;102201.41;4960111;28;114266;-81
2023/10/05 04:17:50;;;;;;;5.47;2.25;;;;;;;16.60;59.43;102204.09;4920775;28;123773;-80
2023/10/05 04:20:22;;;;;;;7.35;2.30;;;;;;;16.60;59.26;102217.47;4933986;28;123948;-80
2023/10/05 04:22:49;;;;;;;5.68;2.15;;;;;;;16.60;59.39;102217.47;4944225;28;115181;-79
2023/10/05 04:25:16;;;;;;;7.60;2.53;;;;;;;16.60;59.35;102212.13;4962335;28;114456;-80
2023/10/05 04:27:46;;;;;;;4.13;1.98;;;;;;;16.59;59.42;102213.03;4948623;28;123881;-81
2023/10/05 04:30:20;;;;;;;7.43;2.30;;;;;;;16.59;59.47;102226.41;4931592;28;123880;-79
2023/10/05 04:32:48;;;;;;;6.23;2.37;;;;;;;16.57;59.26;102217.59;4945699;28;114792;-81
2023/10/05 04:37:50;;;;;;;8.40;2.13;;;;;;;16.56;59.44;102219.41;4927986;28;123443;-79
2023/10/05 04:40:22;;;;;;;7.10;2.00;;;;;;;16.55;59.41;102231.91;4931614;28;124483;-83
2023/10/05 04:43:04;;;;;;;7.20;2.15;;;;;;;16.53;59.37;102231.13;4931375;28;114347;-80
2023/10/05 04:45:31;;;;;;;6.43;2.10;;;;;;;16.53;59.49;102225.75;4939676;28;113873;-80
2023/10/05 04:47:59;;;;;;;6.60;1.92;;;;;;;16.55;59.44;102223.88;4949950;28;123944;-79
2023/10/05 04:50:27;;;;;;;8.07;2.10;;;;;;;16.55;59.47;102221.19;4926864;28;123064;-80
2023/10/05 04:52:55;;;;;;;5.38;2.03;;;;;;;16.55;59.62;102218.53;4929127;28;113892;-81
2023/10/05 04:55:31;;;;;;;6.97;2.00;;;;;;;16.58;59.61;102216.69;4918340;28;114165;-81
2023/10/05 04:58:20;;;;;;;7.50;2.35;;;;;;;16.58;59.64;102222.88;4917080;28;123519;-80
2023/10/05 05:00:54;;;;;;;7.97;2.15;;;;;;;16.59;59.42;102221.06;4938940;28;124136;-79
2023/10/05 05:08:40;;;;;;;6.05;2.25;;;;;;;16.57;59.56;102220.28;4943286;28;123262;-80
2023/10/05 05:11:18;;;;;;;8.25;2.25;;;;;;;16.55;59.51;102218.53;4951791;28;125112;-79
2023/10/05 05:13:47;;;;;;;6.45;2.42;;;;;;;16.55;59.63;102229.22;4951436;28;115094;-81
2023/10/05 05:16:15;;;;;;;7.18;2.00;;;;;;;16.56;59.62;102214.06;4943395;28;114969;-80
2023/10/05 05:18:42;;;;;;;8.15;2.10;;;;;;;16.54;59.50;102216.81;4918150;28;123472;-81
2023/10/05 05:21:11;;;;;;;7.18;2.25;;;;;;;16.54;59.69;102216.81;4939909;28;122771;-79
2023/10/05 05:23:39;;;;;;;5.95;1.92;;;;;;;16.53;59.35;102220.41;4949595;28;114114;-79
2023/10/05 05:26:11;;;;;;;7.35;2.40;;;;;;;16.51;59.36;102227.66;4952208;28;113786;-81
2023/10/05 05:28:38;;;;;;;7.47;2.28;;;;;;;16.48;59.74;102222.47;4948606;28;124222;-80
2023/10/05 05:31:16;;;;;;;6.95;2.30;;;;;;;16.47;59.54;102220.72;4953210;28;123499;-79
2023/10/05 05:33:44;;;;;;;8.18;2.42;;;;;;;16.46;59.50;102227.03;4951872;28;114126;-80
2023/10/05 05:36:13;;;;;;;6.75;2.40;;;;;;;16.44;59.41;102223.53;4934171;28;113570;-80
2023/10/05 05:38:40;;;;;;;4.95;2.13;;;;;;;16.43;59.36;102229.84;4931290;28;124789;-79
2023/10/05 05:41:23;;;;;;;7.80;2.25;;;;;;;16.40;59.65;102238.00;4928697;28;123010;-79
2023/10/05 05:43:53;;;;;;;5.03;2.47;;;;;;;16.38;59.55;102239.00;4946643;28;113351;-78
2023/10/05 05:46:20;;;;;;;6.38;2.50;;;;;;;16.37;59.68;102251.53;4957803;28;112969;-79
2023/10/05 05:48:52;;;;;;;7.43;2.30;;;;;;;16.36;59.63;102249.78;4942069;28;123072;-79
2023/10/05 05:51:23;;;;;;;9.23;2.50;;;;;;;16.35;59.57;102248.06;4965062;28;123001;-81
2023/10/05 05:53:52;;;;;;;10.60;2.40;;;;;;;16.33;59.65;102256.16;4954131;28;114185;-80
2023/10/05 05:56:19;;;;;;;5.97;2.08;;;;;;;16.32;59.47;102258.88;4950075;28;113137;-80
2023/10/05 05:58:47;;;;;;;7.53;2.17;;;;;;;16.30;59.63;102268.78;4951841;28;123719;-81
2023/10/05 06:01:14;;;;;;;7.28;2.60;;;;;;;16.30;59.55;102263.44;4963975;28;124524;-80
2023/10/05 06:03:44;;;;;;;6.93;2.42;;;;;;;16.28;59.75;102274.19;4956729;28;114655;-81
2023/10/05 06:06:11;;;;;;;6.97;2.35;;;;;;;16.27;59.84;102266.25;4927286;28;113854;-80
2023/10/05 06:08:40;;;;;;;5.55;2.50;;;;;;;16.27;59.65;102271.59;4932848;28;124209;-81
2023/10/05 06:11:08;;;;;;;8.95;2.70;;;;;;;16.28;59.83;102273.34;4918566;28;123696;-83
2023/10/05 06:13:38;;;;;;;8.25;2.67;;;;;;;16.28;59.85;102278.69;4936161;28;114104;-79
2023/10/05 06:16:09;;;;;;;15.80;2.83;;;;;;;16.28;59.97;102276.00;4917705;28;113797;-80
2023/10/05 06:18:37;;;;;;;7.43;2.83;;;;;;;16.28;59.86;102273.34;4915897;28;123336;-79
2023/10/05 06:21:05;;;;;;;9.88;2.50;;;;;;;16.30;59.91;102276.81;4916278;28;123862;-80
2023/10/05 06:23:33;;;;;;;6.40;2.53;;;;;;;16.32;59.89;102280.28;4912646;28;113185;-79
2023/10/05 06:26:01;;;;;;;6.93;2.28;;;;;;;16.33;59.96;102284.66;4917505;28;112441;-82
2023/10/05 06:28:28;;;;;;;4.68;2.58;;;;;;;16.34;59.78;102283.75;4933079;28;123372;-82
2023/10/05 06:30:57;;;;;;;7.47;2.53;;;;;;;16.35;60.08;102277.47;4931923;28;124236;-83
2023/10/05 06:33:25;;;;;;;7.32;2.30;;;;;;;16.37;60.06;102272.91;4933551;28;113327;-82
2023/10/05 06:35:54;;;;;;;7.75;2.25;;;;;;;16.39;60.17;102273.72;4966060;28;114645;-81
2023/10/05 06:38:22;;;;;;;6.75;2.30;;;;;;;16.41;60.07;102279.84;4952614;28;123091;-80
2023/10/05 06:40:50;;;;;;;6.43;2.67;;;;;;;16.43;60.07;102277.97;4965877;28;122754;-80
2023/10/05 06:43:17;;;;;;;5.43;2.40;;;;;;;16.45;60.32;102281.44;4950376;28;113784;-80
2023/10/05 06:45:45;;;;;;;11.52;2.95;;;;;;;16.47;60.04;102284.03;4934380;28;113888;-81
2023/10/05 06:48:14;;;;;;;10.68;2.70;;;;;;;16.49;60.26;102283.03;4949097;28;124060;-81
2023/10/05 06:50:43;;;;;;;5.75;2.60;;;;;;;16.51;60.40;102286.50;4950325;28;123315;-81
2023/10/05 06:53:13;;;;;;;6.13;2.40;;;;;;;16.54;60.33;102281.00;4944828;28;115791;-80
2023/10/05 06:55:40;;;;;;;7.45;2.33;;;;;;;16.57;60.24;102297.84;4944942;28;115408;-79
2023/10/05 06:58:08;;;;;;;6.00;2.40;;;;;;;16.60;60.44;102292.38;4933158;28;123196;-79
2023/10/05 07:00:35;;;;;;;8.77;2.50;;;;;;;16.63;60.41;102300.22;4940759;28;123758;-80
2023/10/05 07:03:11;;;;;;;7.38;2.60;;;;;;;16.67;60.34;102301.81;4942417;28;113320;-79
2023/10/05 07:05:39;;;;;;;7.82;2.70;;;;;;;16.68;60.30;102303.56;4929306;28;113867;-81
2023/10/05 07:08:12;;;;;;;9.05;2.88;;;;;;;16.69;60.38;102307.97;4942761;28;124041;-81
2023/10/05 07:10:40;;;;;;;10.90;2.40;;;;;;;16.70;60.25;102307.03;4936252;28;124768;-79
2023/10/05 07:13:09;;;;;;;7.90;2.70;;;;;;;16.74;60.30;102308.59;4949792;28;113411;-80
2023/10/05 07:15:36;;;;;;;6.50;2.92;;;;;;;16.76;60.36;102306.72;4930519;28;113590;-79
2023/10/05 07:18:04;;;;;;;10.90;2.53;;;;;;;16.81;60.45;102307.38;4942270;28;123838;-81
2023/10/05 07:20:31;;;;;;;9.32;2.65;;;;;;;16.83;60.30;102313.56;4931165;28;124094;-81
2023/10/05 07:23:00;;;;;;;8.93;2.65;;;;;;;16.86;60.47;102313.41;4932508;28;113723;-80
2023/10/05 07:25:29;;;;;;;7.18;2.70;;;;;;;16.89;60.46;102318.59;4965490;28;113928;-80
2023/10/05 07:27:56;;;;;;;8.60;2.75;;;;;;;16.92;60.45;102323.81;4948938;28;123870;-79
2023/10/05 07:30:23;;;;;;;9.43;2.50;;;;;;;16.97;60.68;102330.75;4958381;28;124297;-81
2023/10/05 07:32:50;;;;;;;5.78;2.58;;;;;;;16.99;60.25;102331.56;4949147;28;114623;-80
2023/10/05 07:35:38;;;;;;;8.73;2.70;;;;;;;17.02;60.38;102339.44;4922137;28;113087;-81
2023/10/05 07:38:11;;;;;;;7.32;2.72;;;;;;;17.05;60.44;102339.31;4936574;28;124634;-80
2023/10/05 07:40:39;;;;;;;8.55;2.65;;;;;;;17.07;60.39;102340.09;4949351;28;123946;-80
2023/10/05 07:43:07;;;;;;;8.82;2.88;;;;;;;17.11;60.26;102350.56;4951990;28;113690;-81
2023/10/05 07:45:34;;;;;;;8.65;3.20;;;;;;;17.16;60.39;102358.41;4950888;28;115559;-82
2023/10/05 07:48:04;;;;;;;6.03;2.78;;;;;;;17.21;60.37;102356.34;4929423;28;123873;-80
2023/10/05 07:50:34;;;;;;;10.77;2.63;;;;;;;17.25;60.21;102363.31;4948328;28;123847;-80
2023/10/05 07:53:01;;;;;;;8.30;2.63;;;;;;;17.32;60.30;102348.66;4943346;28;115268;-80
2023/10/05 07:55:28;;;;;;;9.52;2.67;;;;;;;17.38;60.22;102368.03;4947097;28;113803;-81
2023/10/05 07:57:55;;;;;;;8.30;2.70;;;;;;;17.43;60.20;102366.88;4946816;28;124016;-80
2023/10/05 08:00:23;;;;;;;9.55;2.88;;;;;;;17.49;60.09;102371.06;4948444;28;124377;-81
2023/10/05 08:02:50;;;;;;;9.32;2.88;;;;;;;17.55;60.43;102365.38;4926453;28;114718;-81
2023/10/05 08:05:17;;;;;;;5.50;2.75;;;;;;;17.63;60.21;102363.19;4918434;28;113412;-80
2023/10/05 08:07:45;;;;;;;6.03;2.70;;;;;;;17.69;60.21;102368.25;4913130;28;123099;-79
2023/10/05 08:10:15;;;;;;;8.30;3.00;;;;;;;17.76;60.22;102373.28;4943249;28;124309;-80
2023/10/05 08:12:43;;;;;;;8.02;3.10;;;;;;;17.84;60.20;102376.47;4912754;28;113406;-81
2023/10/05 08:15:17;;;;;;;7.68;3.22;;;;;;;17.90;60.04;102370.81;4945611;28;113628;-80
2023/10/05 08:17:48;;;;;;;11.80;3.00;;;;;;;17.96;59.68;102375.84;4949396;28;125095;-81
2023/10/05 08:20:17;;;;;;;7.63;2.78;;;;;;;18.03;59.90;102377.25;4947962;28;123681;-81
2023/10/05 08:22:50;;;;;;;6.93;3.20;;;;;;;18.08;59.75;102380.59;4960179;28;113843;-81
2023/10/05 08:25:18;;;;;;;6.47;2.70;;;;;;;18.15;59.54;102375.75;4948480;28;114530;-80
2023/10/05 08:27:48;;;;;;;8.75;2.88;;;;;;;18.20;59.40;102370.16;4952594;28;123612;-80
2023/10/05 08:30:15;;;;;;;10.35;3.45;;;;;;;18.29;59.54;102377.72;4934942;28;123580;-79
2023/10/05 08:32:47;;;;;;;6.93;2.50;;;;;;;18.37;59.36;102380.84;4953157;28;114095;-81
2023/10/05 08:35:17;;;;;;;7.18;3.17;;;;;;;18.44;59.34;102376.91;4940548;28;114146;-81
2023/10/05 08:37:49;;;;;;;7.55;2.75;;;;;;;18.52;58.90;102378.31;4944296;28;124782;-81
2023/10/05 08:43:08;;;;;;;9.32;2.97;;;;;;;18.68;58.96;102380.06;4950910;28;114209;-80
2023/10/05 08:45:51;;;;;;;8.15;2.85;;;;;;;18.77;58.84;102384.03;4952823;28;113639;-80
2023/10/05 08:48:30;;;;;;;7.00;3.17;;;;;;;18.88;58.76;102379.94;4950507;28;124359;-80
2023/10/05 08:51:09;;;;;;;7.68;3.03;;;;;;;18.98;58.94;102381.16;4944317;28;123918;-80
2023/10/05 08:54:02;;;;;;;7.47;2.88;;;;;;;19.09;58.70;102373.34;4935404;28;114268;-81
2023/10/05 08:56:25;;;;;;;4.85;2.60;;;;;;;19.18;58.40;102390.78;4940260;28;113279;-80
2023/10/05 08:58:53;;;;;;;6.25;2.58;;;;;;;19.24;58.27;102388.59;4941442;28;122979;-81
2023/10/05 09:01:31;;;;;;;8.50;2.90;;;;;;;19.33;58.07;102386.38;4931998;28;123884;-79
2023/10/05 09:06:57;;;;;;;9.23;3.00;;;;;;;19.42;57.74;102401.91;4933406;28;113511;-79
2023/10/05 09:09:51;;;;;;;8.85;2.80;;;;;;;19.44;57.65;102406.28;4932328;28;123862;-80
2023/10/05 09:15:10;;;;;;;7.05;2.60;;;;;;;19.51;57.50;102416.66;4931938;28;114280;-79
2023/10/05 09:20:37;;;;;;;6.35;2.60;;;;;;;19.56;57.42;102425.34;4944306;28;123765;-80
2023/10/05 09:23:07;;;;;;;10.23;3.20;;;;;;;19.59;57.33;102436.78;4917170;28;124329;-80
2023/10/05 09:25:37;;;;;;;6.38;2.92;;;;;;;19.63;57.29;102440.16;4916758;28;114522;-80
2023/10/05 09:28:14;;;;;;;8.80;2.85;;;;;;;19.67;57.28;102443.53;4918274;28;115233;-79
2023/10/05 09:30:49;;;;;;;8.68;2.83;;;;;;;19.70;57.08;102448.72;4933411;28;124044;-80
2023/10/05 09:33:21;;;;;;;5.53;2.88;;;;;;;19.73;57.01;102449.44;4947497;28;122554;-80
2023/10/05 09:35:48;;;;;;;8.57;2.45;;;;;;;19.77;57.05;102450.13;4949671;28;113914;-79
2023/10/05 09:38:19;;;;;;;6.68;2.80;;;;;;;19.80;56.94;102450.81;4917983;28;114198;-80
2023/10/05 09:40:48;;;;;;;5.95;2.53;;;;;;;19.84;56.81;102456.88;4941756;28;123103;-80
2023/10/05 09:43:20;;;;;;;9.23;2.72;;;;;;;19.85;56.69;102450.53;4950905;28;122769;-79
2023/10/05 09:45:54;;;;;;;8.27;2.55;;;;;;;19.86;56.21;102449.59;4966475;28;114554;-81
2023/10/05 09:48:21;;;;;;;10.60;2.60;;;;;;;19.85;56.44;102453.22;4935097;28;113419;-80
2023/10/05 09:50:49;;;;;;;6.57;2.60;;;;;;;19.86;56.36;102452.28;4932375;28;124974;-79
2023/10/05 09:53:19;;;;;;;7.63;2.70;;;;;;;19.88;56.57;102436.91;4926838;28;122956;-78
2023/10/05 09:55:49;;;;;;;9.05;2.63;;;;;;;19.91;56.39;102439.44;4934100;28;114525;-79
2023/10/05 09:58:18;;;;;;;7.70;2.70;;;;;;;19.92;56.25;102432.22;4926020;28;112856;-80
2023/10/05 10:00:49;;;;;;;8.27;2.90;;;;;;;19.91;56.18;102430.50;4919538;28;124480;-80
2023/10/05 10:03:17;;;;;;;7.00;2.70;;;;;;;19.92;56.28;102422.34;4926317;28;123861;-80
2023/10/05 10:05:49;;;;;;;9.60;3.13;;;;;;;19.93;56.13;102418.69;4962829;28;114097;-80
2023/10/05 10:08:23;;;;;;;8.80;2.90;;;;;;;19.96;56.37;102418.50;4940786;28;113535;-80
2023/10/05 10:11:31;;;;;;;8.45;2.63;;;;;;;20.00;56.40;102425.44;4916269;28;124257;-82
2023/10/05 10:14:03;;;;;;;7.40;2.80;;;;;;;20.05;56.06;102427.00;4932373;28;123580;-81
2023/10/05 10:16:33;;;;;;;9.38;2.80;;;;;;;20.07;56.29;102435.84;4931392;28;115172;-81
2023/10/05 10:19:06;;;;;;;6.13;3.08;;;;;;;20.10;56.17;102435.63;4931126;28;113910;-81
2023/10/05 10:21:41;;;;;;;6.90;2.80;;;;;;;20.14;56.04;102434.50;4915558;28;123527;-80
2023/10/05 10:24:15;;;;;;;7.05;2.70;;;;;;;20.19;55.91;102440.47;4915528;28;123842;-82
2023/10/05 10:27:08;;;;;;;5.93;2.78;;;;;;;20.23;55.97;102436.66;4933697;28;112643;-81
2023/10/05 10:29:46;;;;;;;6.78;3.00;;;;;;;20.27;56.01;102438.19;4935699;28;113182;-82
2023/10/05 10:32:22;;;;;;;6.20;2.63;;;;;;;20.31;55.72;102437.03;4951459;28;123982;-81
2023/10/05 10:34:52;;;;;;;8.23;2.53;;;;;;;20.34;55.75;102447.63;4965761;28;122799;-80
2023/10/05 10:37:48;;;;;;;6.70;2.70;;;;;;;20.39;55.57;102442.81;4925433;28;113912;-80
2023/10/05 10:43:14;;;;;;;8.05;3.10;;;;;;;20.47;55.62;102438.78;4944020;28;124020;-79
2023/10/05 10:45:49;;;;;;;9.18;2.72;;;;;;;20.52;55.42;102436.69;4924194;28;124317;-80
2023/10/05 10:50:45;;;;;;;6.10;2.30;;;;;;;20.68;55.33;102442.00;4931986;28;113338;-80
2023/10/05 10:53:18;;;;;;;5.60;2.60;;;;;;;20.73;55.29;102439.91;4945367;28;124063;-81
2023/10/05 10:55:51;;;;;;;7.28;2.63;;;;;;;20.76;55.17;102440.56;4934436;28;123911;-81
2023/10/05 10:58:24;;;;;;;9.60;2.78;;;;;;;20.83;55.10;102440.19;4935336;28;112942;-80
2023/10/05 11:00:56;;;;;;;9.25;2.80;;;;;;;20.85;55.07;102438.25;4932424;28;112957;-81
2023/10/05 11:03:26;;;;;;;4.85;2.60;;;;;;;20.88;55.01;102438.94;4942118;28;124383;-80
2023/10/05 11:05:54;;;;;;;4.93;2.63;;;;;;;20.94;55.01;102434.97;4927423;28;122597;-81
2023/10/05 11:08:22;;;;;;;6.45;2.50;;;;;;;20.98;54.76;102428.44;4932288;28;115009;-81
2023/10/05 11:10:58;;;;;;;7.38;2.70;;;;;;;21.00;54.79;102431.88;4937302;28;115217;-81
2023/10/05 11:13:30;;;;;;;8.18;3.08;;;;;;;21.05;54.67;102437.00;4917465;28;124286;-80
2023/10/05 11:16:03;;;;;;;6.30;2.72;;;;;;;21.09;54.66;102425.91;4928782;28;124040;-81
2023/10/05 11:18:34;;;;;;;8.25;2.97;;;;;;;21.15;54.64;102430.94;4931139;28;115029;-80
2023/10/05 11:21:18;;;;;;;7.07;2.63;;;;;;;21.23;54.66;102413.38;4929621;28;114297;-80
2023/10/05 11:23:56;;;;;;;5.90;2.28;;;;;;;21.29;54.70;102415.69;4903523;28;124127;-80
2023/10/05 11:26:35;;;;;;;7.45;2.58;;;;;;;21.34;54.62;102408.13;4946760;28;123834;-81
2023/10/05 11:29:21;;;;;;;6.55;2.85;;;;;;;21.38;54.40;102415.09;4934141;28;114539;-81
2023/10/05 11:31:51;;;;;;;5.88;2.50;;;;;;;21.42;54.15;102422.00;4945189;28;113854;-81
2023/10/05 11:34:44;;;;;;;13.38;2.80;;;;;;;21.42;54.26;102422.00;4942474;28;124021;-81
2023/10/05 11:37:32;;;;;;;6.80;2.53;;;;;;;21.45;54.15;102420.94;4936407;28;123918;-80
2023/10/05 11:40:01;;;;;;;7.35;2.17;;;;;;;21.46;54.07;102412.78;4919562;28;113957;-80
2023/10/05 11:42:34;;;;;;;7.78;2.60;;;;;;;21.53;53.97;102414.09;4936807;28;114100;-79
2023/10/05 11:45:12;;;;;;;6.43;2.50;;;;;;;21.63;53.83;102418.88;4941354;28;123503;-80
2023/10/05 11:47:45;;;;;;;7.85;2.58;;;;;;;21.75;54.08;102407.25;4913640;28;124167;-80
2023/10/05 11:50:24;;;;;;;5.15;2.42;;;;;;;21.89;53.87;102409.88;4929609;28;113083;-79
2023/10/05 11:52:55;;;;;;;4.90;2.08;;;;;;;22.02;53.59;102404.53;4916778;28;114307;-80
2023/10/05 11:55:22;;;;;;;8.05;2.33;;;;;;;22.15;53.58;102399.09;4913413;28;123847;-80
2023/10/05 11:57:52;;;;;;;6.25;2.13;;;;;;;22.27;53.17;102414.50;4945997;28;123750;-80
2023/10/05 12:00:19;;;;;;;8.05;2.25;;;;;;;22.35;52.55;102422.91;4917394;28;114781;-80
2023/10/05 12:02:46;;;;;;;6.38;2.13;;;;;;;22.39;52.36;102411.91;4952899;28;114927;-80
2023/10/05 12:05:14;;;;;;;5.05;2.10;;;;;;;22.44;52.11;102404.38;4952286;28;124672;-80
2023/10/05 12:07:45;;;;;;;6.50;2.35;;;;;;;22.48;51.92;102416.66;4945244;28;124118;-79
2023/10/05 12:10:13;;;;;;;6.40;2.60;;;;;;;22.51;51.83;102411.06;4936886;28;114631;-79
2023/10/05 12:12:41;;;;;;;6.22;2.05;;;;;;;22.51;51.76;102400.25;4944745;28;113742;-80